createdAt,value
2023-05-11T00:00:36.893Z,48.55
2023-05-11T00:03:20.032Z,49.17
2023-05-11T00:05:55.359Z,49.56
2023-05-11T00:08:30.291Z,49.69
2023-05-11T00:11:05.597Z,49.88
2023-05-11T00:13:36.615Z,49.90
2023-05-11T00:16:11.979Z,50.17
2023-05-11T00:18:43.085Z,50.42
2023-05-11T00:21:18.573Z,50.66
2023-05-11T00:23:55.313Z,50.69
2023-05-11T00:26:26.826Z,51.02
2023-05-11T00:29:01.830Z,51.10
2023-05-11T00:31:41.293Z,51.25
2023-05-11T00:34:16.300Z,51.44
2023-05-11T00:36:51.828Z,51.99
2023-05-11T00:39:23.257Z,51.95
2023-05-11T00:41:54.599Z,52.15
2023-05-11T00:44:25.624Z,52.25
2023-05-11T00:47:01.705Z,52.19
2023-05-11T00:49:40.954Z,52.30
2023-05-11T00:52:16.306Z,52.42
2023-05-11T00:54:48.196Z,52.61
2023-05-11T00:57:23.489Z,52.63
2023-05-11T00:59:58.359Z,52.54
2023-05-11T01:02:33.912Z,52.56
2023-05-11T01:05:05.815Z,52.75
2023-05-11T01:07:44.757Z,52.86
2023-05-11T01:10:27.811Z,53.05
2023-05-11T01:13:09.698Z,53.02
2023-05-11T01:15:57.473Z,53.26
2023-05-11T01:18:39.461Z,53.62
2023-05-11T01:21:20.692Z,53.85
2023-05-11T01:24:08.544Z,54.07
2023-05-11T01:26:59.437Z,54.43
2023-05-11T01:29:50.869Z,54.83
2023-05-11T01:32:27.393Z,54.92
2023-05-11T01:35:33.806Z,54.99
2023-05-11T01:38:10.823Z,54.93
2023-05-11T01:40:48.757Z,55.22
2023-05-11T01:43:23.700Z,55.32
2023-05-11T01:46:04.537Z,55.50
2023-05-11T01:48:42.364Z,55.66
2023-05-11T01:51:20.136Z,55.62
2023-05-11T01:53:53.501Z,55.62
2023-05-11T01:56:34.375Z,55.82
2023-05-11T01:59:10.413Z,55.84
2023-05-11T02:01:45.933Z,55.94
2023-05-11T02:04:19.997Z,55.96
2023-05-11T02:06:56.575Z,56.03
2023-05-11T02:09:31.507Z,56.08
2023-05-11T02:12:09.556Z,56.10
2023-05-11T02:14:42.562Z,57.10
2023-05-11T02:17:20.522Z,57.08
2023-05-11T02:19:52.605Z,57.37
2023-05-11T02:22:29.842Z,57.25
2023-05-11T02:25:00.997Z,56.61
2023-05-11T02:27:37.093Z,56.69
2023-05-11T02:30:13.878Z,56.35
2023-05-11T02:32:55.570Z,55.92
2023-05-11T02:35:34.362Z,55.63
2023-05-11T02:38:11.328Z,55.55
2023-05-11T02:40:55.886Z,55.48
2023-05-11T02:43:32.436Z,55.53
2023-05-11T02:46:10.993Z,55.54
2023-05-11T02:48:55.297Z,55.27
2023-05-11T02:51:36.142Z,55.13
2023-05-11T02:54:10.795Z,55.08
2023-05-11T02:56:51.047Z,55.17
2023-05-11T02:59:24.258Z,55.05
2023-05-11T03:01:59.638Z,55.12
2023-05-11T03:04:35.362Z,55.33
2023-05-11T03:07:12.063Z,55.33
2023-05-11T03:09:43.939Z,55.30
2023-05-11T03:12:19.315Z,55.25
2023-05-11T03:14:52.417Z,55.20
2023-05-11T03:17:28.235Z,55.23
2023-05-11T03:20:03.556Z,54.90
2023-05-11T03:22:41.051Z,54.93
2023-05-11T03:25:19.364Z,54.93
2023-05-11T03:27:51.313Z,55.17
2023-05-11T03:30:33.373Z,55.05
2023-05-11T03:33:08.535Z,55.25
2023-05-11T03:35:47.193Z,55.16
2023-05-11T03:38:27.906Z,54.81
2023-05-11T03:41:01.364Z,54.91
2023-05-11T03:43:44.659Z,54.79
2023-05-11T03:46:24.421Z,54.73
2023-05-11T03:48:59.694Z,54.81
2023-05-11T03:51:32.872Z,54.73
2023-05-11T03:54:07.988Z,54.68
2023-05-11T03:56:40.536Z,54.03
2023-05-11T03:59:20.381Z,54.23
2023-05-11T04:01:53.216Z,54.17
2023-05-11T04:04:35.679Z,53.49
2023-05-11T04:07:07.019Z,53.42
2023-05-11T04:09:41.949Z,53.24
2023-05-11T04:12:17.216Z,51.73
2023-05-11T04:14:52.112Z,52.38
2023-05-11T04:17:27.637Z,51.00
2023-05-11T04:19:58.499Z,50.66
2023-05-11T04:22:33.685Z,49.39
2023-05-11T04:25:09.172Z,49.25
2023-05-11T04:27:44.927Z,48.82
2023-05-11T04:30:16.204Z,48.21
2023-05-11T04:32:52.097Z,47.62
2023-05-11T04:35:24.776Z,46.96
2023-05-11T04:37:56.708Z,46.28
2023-05-11T04:40:28.041Z,46.11
2023-05-11T04:42:59.523Z,45.69
2023-05-11T04:45:30.506Z,44.82
2023-05-11T04:48:06.660Z,44.47
2023-05-11T04:50:43.730Z,43.60
2023-05-11T04:53:24.747Z,42.88
2023-05-11T04:55:55.819Z,42.56
2023-05-11T04:58:31.220Z,41.98
2023-05-11T05:01:02.228Z,42.93
2023-05-11T05:03:37.537Z,42.02
2023-05-11T05:06:12.613Z,41.52
2023-05-11T05:08:47.995Z,40.16
2023-05-11T05:11:21.714Z,40.36
2023-05-11T05:13:58.993Z,40.29
2023-05-11T05:16:34.142Z,40.91
2023-05-11T05:19:09.383Z,41.86
2023-05-11T05:21:48.840Z,42.15
2023-05-11T05:24:24.639Z,41.80
2023-05-11T05:26:59.532Z,42.66
2023-05-11T05:29:34.985Z,42.69
2023-05-11T05:32:05.902Z,42.53
2023-05-11T05:34:41.954Z,41.96
2023-05-11T05:37:21.411Z,42.32
2023-05-11T05:39:56.963Z,42.38
2023-05-11T05:42:28.087Z,41.62
2023-05-11T05:45:03.857Z,42.02
2023-05-11T05:47:39.101Z,41.66
2023-05-11T05:50:11.737Z,41.72
2023-05-11T05:52:47.624Z,41.44
2023-05-11T05:55:23.856Z,41.41
2023-05-11T05:57:56.109Z,41.11
2023-05-11T06:00:27.610Z,40.82
2023-05-11T06:03:09.222Z,40.79
2023-05-11T06:05:45.712Z,40.19
2023-05-11T06:08:25.111Z,40.35
2023-05-11T06:10:56.788Z,40.94
2023-05-11T06:13:31.894Z,40.37
2023-05-11T06:16:03.426Z,39.23
2023-05-11T06:18:39.536Z,39.65
2023-05-11T06:21:11.263Z,39.41
2023-05-11T06:23:46.279Z,39.49
2023-05-11T06:26:21.839Z,39.02
2023-05-11T06:29:01.602Z,38.69
2023-05-11T06:31:33.162Z,38.15
2023-05-11T06:34:09.246Z,38.43
2023-05-11T06:36:40.688Z,38.13
2023-05-11T06:39:16.207Z,38.07
2023-05-11T06:41:47.849Z,38.01
2023-05-11T06:44:18.971Z,37.38
2023-05-11T06:46:53.398Z,36.59
2023-05-11T06:49:24.380Z,36.90
2023-05-11T06:51:53.289Z,36.99
2023-05-11T06:54:22.504Z,36.35
2023-05-11T06:56:50.215Z,36.61
2023-05-11T06:59:17.390Z,34.99
2023-05-11T07:01:44.916Z,35.20
2023-05-11T07:04:12.154Z,35.12
2023-05-11T07:06:39.261Z,34.52
2023-05-11T07:09:06.796Z,34.10
2023-05-11T07:11:34.006Z,34.30
2023-05-11T07:14:01.333Z,34.36
2023-05-11T07:16:28.683Z,34.02
2023-05-11T07:18:56.617Z,33.89
2023-05-11T07:21:23.908Z,33.89
2023-05-11T07:23:50.972Z,33.46
2023-05-11T07:26:18.293Z,32.88
2023-05-11T07:28:45.520Z,32.11
2023-05-11T07:31:12.851Z,31.76
2023-05-11T07:33:40.031Z,30.66
2023-05-11T07:36:07.722Z,31.09
2023-05-11T07:38:35.107Z,31.30
2023-05-11T07:41:03.175Z,30.97
2023-05-11T07:43:31.817Z,31.33
2023-05-11T07:45:59.670Z,31.19
2023-05-11T07:48:27.106Z,31.33
2023-05-11T07:50:54.536Z,31.84
2023-05-11T07:53:21.942Z,31.61
2023-05-11T07:55:49.164Z,31.88
2023-05-11T07:58:16.530Z,31.05
2023-05-11T08:00:43.818Z,31.70
2023-05-11T08:03:11.322Z,31.57
2023-05-11T08:05:38.681Z,31.82
2023-05-11T08:08:06.398Z,31.87
2023-05-11T08:10:33.715Z,32.12
2023-05-11T08:13:01.039Z,31.62
2023-05-11T08:15:28.484Z,30.96
2023-05-11T08:17:56.118Z,31.04
2023-05-11T08:20:23.912Z,30.77
2023-05-11T08:22:50.949Z,30.87
2023-05-11T08:25:18.915Z,30.92
2023-05-11T08:27:46.060Z,30.90
2023-05-11T08:30:14.079Z,30.33
2023-05-11T08:35:13.466Z,30.50
2023-05-11T08:37:40.439Z,30.65
2023-05-11T08:40:13.853Z,30.13
2023-05-11T08:42:46.757Z,30.50
2023-05-11T08:45:15.428Z,30.41
2023-05-11T08:47:42.793Z,30.36
2023-05-11T08:50:10.620Z,30.40
2023-05-11T08:52:37.975Z,30.85
2023-05-11T08:55:05.973Z,30.33
2023-05-11T08:57:35.077Z,30.48
2023-05-11T09:00:03.733Z,30.00
2023-05-11T09:02:31.925Z,29.39
2023-05-11T09:05:01.750Z,30.06
2023-05-11T09:07:30.124Z,30.05
2023-05-11T09:09:58.050Z,30.18
2023-05-11T09:12:26.394Z,29.89
2023-05-11T09:14:55.056Z,29.84
2023-05-11T09:17:29.052Z,30.00
2023-05-11T09:20:01.536Z,29.68
2023-05-11T09:22:31.414Z,29.89
2023-05-11T09:25:02.347Z,29.83
2023-05-11T09:27:29.282Z,30.33
2023-05-11T09:29:56.604Z,30.78
2023-05-11T09:32:24.125Z,30.88
2023-05-11T09:34:51.943Z,30.14
2023-05-11T09:37:19.592Z,30.42
2023-05-11T09:40:14.062Z,30.26
2023-05-11T09:42:33.909Z,30.38
2023-05-11T09:45:01.257Z,30.47
2023-05-11T09:47:39.867Z,31.02
2023-05-11T09:50:18.544Z,30.16
2023-05-11T09:52:53.125Z,30.24
2023-05-11T09:55:20.831Z,30.18
2023-05-11T09:57:57.567Z,30.18
2023-05-11T10:00:25.473Z,30.52
2023-05-11T10:03:02.130Z,30.58
2023-05-11T10:05:31.974Z,30.48
2023-05-11T10:08:07.996Z,29.95
2023-05-11T10:10:35.771Z,30.39
2023-05-11T10:13:03.617Z,29.99
2023-05-11T10:15:32.738Z,30.00
2023-05-11T10:18:01.494Z,29.56
2023-05-11T10:20:28.826Z,29.52
2023-05-11T10:22:56.261Z,29.74
2023-05-11T10:25:25.217Z,30.02
2023-05-11T10:27:53.816Z,29.89
2023-05-11T10:30:22.494Z,30.60
2023-05-11T10:32:51.689Z,29.38
2023-05-11T10:35:19.441Z,29.39
2023-05-11T10:37:46.673Z,29.63
2023-05-11T10:40:14.332Z,29.69
2023-05-11T10:43:28.850Z,28.96
2023-05-11T10:46:27.482Z,29.36
2023-05-11T10:49:17.486Z,29.78
2023-05-11T10:52:03.496Z,29.74
2023-05-11T10:54:52.843Z,28.95
2023-05-11T10:57:55.209Z,29.02
2023-05-11T11:00:43.590Z,29.41
2023-05-11T11:03:12.572Z,29.42
2023-05-11T11:05:40.098Z,30.38
2023-05-11T11:08:09.565Z,29.86
2023-05-11T11:10:38.433Z,29.31
2023-05-11T11:13:10.030Z,29.46
2023-05-11T11:15:55.491Z,29.65
2023-05-11T11:18:25.731Z,28.71
2023-05-11T11:20:54.650Z,29.07
2023-05-11T11:23:42.266Z,29.15
2023-05-11T11:26:15.740Z,29.15
2023-05-11T11:29:00.716Z,29.17
2023-05-11T11:31:32.282Z,30.42
2023-05-11T11:34:28.841Z,29.21
2023-05-11T11:36:56.062Z,30.27
2023-05-11T11:39:29.064Z,29.16
2023-05-11T11:42:19.866Z,28.89
2023-05-11T11:44:49.032Z,29.11
2023-05-11T11:47:20.134Z,28.72
2023-05-11T11:49:53.363Z,29.05
2023-05-11T11:52:26.979Z,28.91
2023-05-11T11:55:02.514Z,28.78
2023-05-11T11:57:30.033Z,29.15
2023-05-11T11:59:57.733Z,28.72
2023-05-11T12:02:26.667Z,29.04
2023-05-11T12:05:01.018Z,29.04
2023-05-11T12:07:33.557Z,30.42
2023-05-11T12:10:04.664Z,29.36
2023-05-11T12:12:32.426Z,29.36
2023-05-11T12:15:02.326Z,29.82
2023-05-11T12:17:30.178Z,29.56
2023-05-11T12:20:12.291Z,29.77
2023-05-11T12:22:39.626Z,29.95
2023-05-11T12:25:08.326Z,30.08
2023-05-11T12:27:35.675Z,29.57
2023-05-11T12:30:02.891Z,29.45
2023-05-11T12:32:31.345Z,29.57
2023-05-11T12:35:04.270Z,29.39
2023-05-11T12:37:31.999Z,29.87
2023-05-11T12:39:59.926Z,29.45
2023-05-11T12:42:27.286Z,29.86
2023-05-11T12:44:55.474Z,30.33
2023-05-11T12:47:23.502Z,29.91
2023-05-11T12:49:51.094Z,29.50
2023-05-11T12:52:18.227Z,29.87
2023-05-11T12:54:51.809Z,29.89
2023-05-11T12:57:26.977Z,29.68
2023-05-11T13:00:15.593Z,29.65
2023-05-11T13:02:50.892Z,29.78
2023-05-11T13:05:23.444Z,29.64
2023-05-11T13:08:03.542Z,29.56
2023-05-11T13:10:31.693Z,29.55
2023-05-11T13:12:59.284Z,30.12
2023-05-11T13:15:28.653Z,29.14
2023-05-11T13:17:59.216Z,28.98
2023-05-11T13:20:29.502Z,29.19
2023-05-11T13:23:08.798Z,29.98
2023-05-11T13:25:53.473Z,28.96
2023-05-11T13:28:23.610Z,28.54
2023-05-11T13:30:58.068Z,28.36
2023-05-11T13:33:26.412Z,28.56
2023-05-11T13:35:54.573Z,28.63
2023-05-11T13:38:22.532Z,28.86
2023-05-11T13:40:50.708Z,28.64
2023-05-11T13:43:17.808Z,28.86
2023-05-11T13:45:46.388Z,28.77
2023-05-11T13:48:13.692Z,28.83
2023-05-11T13:50:41.368Z,29.42
2023-05-11T13:53:08.342Z,29.61
2023-05-11T13:55:38.227Z,29.50
2023-05-11T13:58:06.509Z,29.10
2023-05-11T14:00:35.111Z,29.02
2023-05-11T14:03:02.489Z,29.22
2023-05-11T14:05:30.028Z,29.40
2023-05-11T14:07:57.234Z,29.35
2023-05-11T14:10:27.742Z,30.01
2023-05-11T14:12:55.276Z,29.23
2023-05-11T14:15:22.667Z,29.01
2023-05-11T14:17:50.128Z,29.70
2023-05-11T14:20:17.206Z,29.43
2023-05-11T14:22:44.476Z,29.04
2023-05-11T14:25:11.444Z,29.30
2023-05-11T14:27:39.461Z,28.86
2023-05-11T14:30:07.986Z,29.41
2023-05-11T14:32:35.635Z,29.53
2023-05-11T14:35:02.902Z,29.45
2023-05-11T14:37:30.598Z,29.51
2023-05-11T14:39:58.123Z,29.64
2023-05-11T14:42:25.488Z,29.04
2023-05-11T14:44:52.556Z,29.08
2023-05-11T14:47:20.116Z,29.23
2023-05-11T14:49:47.333Z,28.72
2023-05-11T14:52:14.488Z,28.81
2023-05-11T14:54:42.748Z,28.42
2023-05-11T14:57:10.078Z,27.03
2023-05-11T14:59:47.660Z,26.21
2023-05-11T15:02:26.145Z,24.80
2023-05-11T15:04:53.411Z,23.67
2023-05-11T15:07:21.302Z,23.55
2023-05-11T15:09:48.658Z,22.58
2023-05-11T15:12:16.168Z,22.63
2023-05-11T15:14:43.559Z,22.60
2023-05-11T15:17:11.250Z,22.39
2023-05-11T15:19:38.277Z,22.24
2023-05-11T15:22:06.194Z,22.49
2023-05-11T15:24:34.137Z,22.50
2023-05-11T15:27:01.838Z,22.87
2023-05-11T15:29:28.748Z,22.90
2023-05-11T15:31:56.232Z,22.76
2023-05-11T15:34:23.331Z,22.74
2023-05-11T15:36:50.986Z,23.07
2023-05-11T15:39:18.607Z,23.13
2023-05-11T15:41:46.623Z,22.70
2023-05-11T15:44:13.849Z,23.25
2023-05-11T15:46:42.056Z,23.53
2023-05-11T15:49:09.171Z,24.09
2023-05-11T15:51:37.065Z,23.85
2023-05-11T15:54:04.103Z,23.88
2023-05-11T15:56:32.131Z,25.03
2023-05-11T15:58:59.254Z,25.25
2023-05-11T16:01:26.843Z,25.77
2023-05-11T16:03:53.749Z,25.61
2023-05-11T16:06:22.034Z,26.26
2023-05-11T16:08:48.963Z,26.25
2023-05-11T16:11:18.811Z,25.80
2023-05-11T16:13:46.625Z,26.26
2023-05-11T16:16:14.486Z,26.51
2023-05-11T16:18:41.619Z,26.37
2023-05-11T16:21:09.016Z,26.65
2023-05-11T16:23:35.982Z,26.54
2023-05-11T16:26:03.612Z,26.14
2023-05-11T16:28:31.684Z,25.65
2023-05-11T16:30:59.515Z,26.04
2023-05-11T16:33:26.906Z,25.92
2023-05-11T16:35:54.443Z,25.97
2023-05-11T16:38:22.577Z,25.91
2023-05-11T16:40:50.699Z,25.80
2023-05-11T16:43:17.978Z,26.39
2023-05-11T16:45:45.548Z,26.33
2023-05-11T16:48:12.645Z,26.93
2023-05-11T16:50:39.905Z,26.66
2023-05-11T16:53:07.041Z,26.89
2023-05-11T16:55:34.510Z,26.79
2023-05-11T16:58:02.315Z,27.10
2023-05-11T17:00:30.088Z,27.01
2023-05-11T17:02:57.235Z,27.36
2023-05-11T17:05:24.722Z,27.45
2023-05-11T17:07:51.788Z,27.98
2023-05-11T17:10:19.651Z,28.30
2023-05-11T17:12:47.070Z,28.68
2023-05-11T17:15:14.444Z,29.18
2023-05-11T17:17:41.484Z,29.20
2023-05-11T17:20:10.255Z,29.49
2023-05-11T17:22:38.425Z,29.64
2023-05-11T17:25:07.377Z,29.92
2023-05-11T17:27:35.811Z,30.07
2023-05-11T17:30:04.785Z,30.52
2023-05-11T17:32:32.377Z,30.24
2023-05-11T17:35:01.320Z,30.53
2023-05-11T17:37:32.264Z,30.31
2023-05-11T17:40:01.187Z,30.49
2023-05-11T17:42:28.648Z,30.80
2023-05-11T17:44:56.406Z,30.62
2023-05-11T17:47:23.422Z,31.05
2023-05-11T17:49:50.885Z,31.13
2023-05-11T17:52:17.770Z,31.25
2023-05-11T17:54:45.307Z,31.53
2023-05-11T17:57:12.307Z,31.53
2023-05-11T17:59:39.761Z,31.76
2023-05-11T18:02:07.557Z,31.65
2023-05-11T18:04:35.191Z,31.88
2023-05-11T18:07:02.126Z,32.20
2023-05-11T18:09:29.598Z,32.23
2023-05-11T18:11:56.956Z,32.24
2023-05-11T18:14:24.195Z,32.55
2023-05-11T18:16:53.146Z,32.53
2023-05-11T18:19:20.493Z,32.62
2023-05-11T18:21:48.536Z,32.71
2023-05-11T18:24:18.205Z,32.82
2023-05-11T18:26:45.677Z,32.93
2023-05-11T18:29:12.904Z,33.25
2023-05-11T18:31:40.213Z,33.45
2023-05-11T18:34:08.038Z,33.65
2023-05-11T18:36:35.622Z,33.84
2023-05-11T18:39:04.892Z,33.85
2023-05-11T18:41:32.057Z,33.86
2023-05-11T18:44:00.241Z,33.91
2023-05-11T18:46:27.757Z,34.15
2023-05-11T18:48:55.324Z,34.47
2023-05-11T18:51:22.899Z,34.53
2023-05-11T18:53:50.543Z,34.73
2023-05-11T18:56:17.884Z,35.01
2023-05-11T18:58:46.565Z,35.33
2023-05-11T19:01:14.299Z,35.34
2023-05-11T19:03:41.667Z,35.73
2023-05-11T19:06:09.131Z,35.73
2023-05-11T19:08:36.904Z,35.88
2023-05-11T19:11:06.820Z,36.21
2023-05-11T19:13:34.770Z,36.49
2023-05-11T19:16:03.841Z,36.73
2023-05-11T19:18:32.345Z,36.89
2023-05-11T19:20:59.512Z,37.11
2023-05-11T19:23:26.761Z,37.30
2023-05-11T19:25:53.787Z,37.43
2023-05-11T19:28:21.839Z,37.79
2023-05-11T19:30:49.358Z,37.99
2023-05-11T19:33:16.776Z,38.13
2023-05-11T19:35:44.522Z,38.48
2023-05-11T19:38:11.741Z,38.46
2023-05-11T19:40:45.545Z,38.63
2023-05-11T19:43:14.755Z,38.78
2023-05-11T19:45:44.280Z,38.83
2023-05-11T19:48:12.712Z,38.94
2023-05-11T19:50:43.102Z,38.84
2023-05-11T19:53:10.805Z,39.11
2023-05-11T19:55:40.211Z,39.08
2023-05-11T19:58:07.859Z,39.08
2023-05-11T20:00:35.215Z,39.30
2023-05-11T20:03:03.441Z,39.43
2023-05-11T20:05:30.669Z,39.60
2023-05-11T20:07:58.308Z,39.67
2023-05-11T20:10:25.613Z,39.94
2023-05-11T20:12:53.138Z,40.04
2023-05-11T20:15:21.085Z,40.21
2023-05-11T20:17:50.307Z,40.16
2023-05-11T20:20:17.771Z,40.19
2023-05-11T20:22:46.214Z,40.40
2023-05-11T20:25:18.506Z,40.30
2023-05-11T20:27:46.986Z,40.63
2023-05-11T20:30:14.445Z,40.69
2023-05-11T20:34:06.897Z,40.89
2023-05-11T20:35:29.703Z,40.80
2023-05-11T20:37:57.103Z,40.88
2023-05-11T20:40:25.535Z,41.14
2023-05-11T20:42:52.910Z,41.13
2023-05-11T20:45:20.085Z,41.34
2023-05-11T20:47:47.465Z,41.58
2023-05-11T20:50:15.235Z,41.61
2023-05-11T20:52:42.510Z,41.78
2023-05-11T20:55:09.511Z,42.25
2023-05-11T20:57:36.823Z,42.18
2023-05-11T21:00:07.553Z,42.18
2023-05-11T21:02:35.437Z,42.25
2023-05-11T21:05:04.430Z,42.46
2023-05-11T21:07:31.712Z,42.71
2023-05-11T21:09:58.758Z,42.72
2023-05-11T21:12:26.397Z,42.79
2023-05-11T21:14:54.906Z,42.90
2023-05-11T21:17:23.480Z,43.14
2023-05-11T21:19:50.703Z,43.22
2023-05-11T21:22:17.867Z,43.10
2023-05-11T21:24:44.938Z,43.09
2023-05-11T21:27:12.255Z,43.49
2023-05-11T21:29:39.209Z,43.63
2023-05-11T21:32:06.938Z,43.49
2023-05-11T21:34:34.293Z,43.52
2023-05-11T21:37:03.120Z,43.81
2023-05-11T21:39:30.407Z,44.00
2023-05-11T21:41:57.836Z,43.76
2023-05-11T21:44:25.371Z,43.83
2023-05-11T21:46:52.664Z,43.89
2023-05-11T21:49:20.036Z,43.80
2023-05-11T21:51:47.397Z,44.06
2023-05-11T21:54:14.594Z,44.29
2023-05-11T21:56:42.209Z,44.43
2023-05-11T21:59:09.400Z,44.30
2023-05-11T22:01:38.564Z,44.46
2023-05-11T22:04:06.680Z,44.55
2023-05-11T22:06:33.928Z,44.72
2023-05-11T22:09:01.262Z,44.67
2023-05-11T22:11:28.688Z,44.70
2023-05-11T22:13:55.601Z,45.01
2023-05-11T22:16:23.104Z,45.08
2023-05-11T22:18:50.298Z,45.15
2023-05-11T22:21:17.959Z,45.42
2023-05-11T22:23:45.103Z,45.50
2023-05-11T22:26:12.566Z,45.70
2023-05-11T22:28:39.380Z,45.76
2023-05-11T22:31:07.918Z,46.03
2023-05-11T22:33:35.129Z,46.34
2023-05-11T22:36:02.744Z,46.25
2023-05-11T22:38:29.605Z,46.62
2023-05-11T22:40:56.949Z,46.62
2023-05-11T22:43:24.091Z,46.71
2023-05-11T22:45:51.448Z,46.93
2023-05-11T22:48:18.384Z,46.83
2023-05-11T22:50:47.817Z,46.83
2023-05-11T22:53:14.901Z,47.12
2023-05-11T22:55:42.549Z,46.81
2023-05-11T22:58:09.545Z,47.09
2023-05-11T23:00:37.426Z,46.92
2023-05-11T23:03:04.787Z,47.03
2023-05-11T23:05:32.148Z,47.23
2023-05-11T23:08:00.009Z,46.86
2023-05-11T23:10:28.691Z,46.94
2023-05-11T23:12:56.358Z,47.01
2023-05-11T23:15:23.785Z,47.57
2023-05-11T23:17:50.947Z,47.60
2023-05-11T23:20:18.728Z,47.96
2023-05-11T23:22:45.905Z,47.97
2023-05-11T23:25:15.470Z,47.86
2023-05-11T23:27:42.462Z,47.74
2023-05-11T23:30:10.250Z,47.55
2023-05-11T23:32:37.202Z,47.66
2023-05-11T23:35:04.800Z,47.92
2023-05-11T23:37:31.961Z,47.73
2023-05-11T23:39:59.354Z,47.68
2023-05-11T23:42:26.891Z,47.79
2023-05-11T23:44:54.509Z,48.06
2023-05-11T23:47:21.788Z,47.85
2023-05-11T23:49:49.794Z,47.93
2023-05-11T23:52:16.705Z,47.89
2023-05-11T23:54:44.335Z,47.66
2023-05-11T23:57:11.389Z,47.62
2023-05-11T23:59:38.666Z,47.54
